Time;durP1;ratioP1;P1;durP2;ratioP2;P2;SDS_P1;SDS_P2;PMS_P1;PMS_P2;Temp;Humidity;BMP_temperature;BMP_pressure;BME280_temperature;BME280_humidity;BME280_pressure;Samples;Min_cycle;Max_cycle;Signal;HPM_P1;HPM_P2
2021/11/05 00:02:17;;;;;;;11.90;10.73;;;7.50;99.90;;;;;;4954980;28;20722;-72
2021/11/05 00:04:43;;;;;;;9.00;8.18;;;7.40;99.90;;;;;;4955250;28;20050;-72
2021/11/05 00:07:09;;;;;;;9.30;8.57;;;7.50;99.90;;;;;;4954416;28;20047;-72
2021/11/05 00:09:35;;;;;;;11.20;9.73;;;7.50;99.90;;;;;;4954055;28;20031;-72
2021/11/05 00:12:02;;;;;;;10.55;9.55;;;7.50;99.90;;;;;;4969647;28;20054;-71
2021/11/05 00:14:28;;;;;;;10.15;9.15;;;7.50;99.90;;;;;;4954076;28;20504;-72
2021/11/05 00:16:54;;;;;;;9.93;8.95;;;7.50;99.90;;;;;;4954572;28;20039;-72
2021/11/05 00:19:21;;;;;;;10.85;8.73;;;7.40;99.90;;;;;;4955924;28;20054;-71
2021/11/05 00:21:47;;;;;;;9.80;8.68;;;7.50;99.90;;;;;;4960057;28;20047;-72
2021/11/05 00:24:13;;;;;;;9.57;8.70;;;7.40;99.90;;;;;;4965233;28;20036;-73
2021/11/05 00:26:39;;;;;;;8.75;7.25;;;7.40;99.90;;;;;;4954676;28;20460;-72
2021/11/05 00:29:05;;;;;;;8.35;7.72;;;7.40;99.90;;;;;;4965659;28;20050;-75
2021/11/05 00:31:32;;;;;;;8.55;7.85;;;7.40;99.90;;;;;;4954608;28;20042;-72
2021/11/05 00:33:58;;;;;;;9.30;8.27;;;7.40;99.90;;;;;;4954323;28;20034;-72
2021/11/05 00:36:24;;;;;;;11.77;8.43;;;7.30;99.90;;;;;;4954247;28;20030;-72
2021/11/05 00:38:50;;;;;;;8.82;7.38;;;7.30;99.90;;;;;;4954555;28;20027;-72
2021/11/05 00:41:17;;;;;;;13.50;8.52;;;7.40;99.90;;;;;;4954108;28;20027;-72
2021/11/05 00:43:43;;;;;;;8.80;8.00;;;7.30;99.90;;;;;;4954394;28;20050;-72
2021/11/05 00:46:10;;;;;;;8.93;7.13;;;7.30;99.90;;;;;;4954280;28;20034;-73
2021/11/05 00:48:36;;;;;;;8.73;7.82;;;7.30;99.90;;;;;;4953822;28;20054;-73
2021/11/05 00:51:02;;;;;;;6.97;6.35;;;7.20;99.90;;;;;;4954019;28;20039;-72
2021/11/05 00:53:29;;;;;;;10.13;7.78;;;7.20;99.90;;;;;;4954242;28;20031;-74
2021/11/05 00:55:55;;;;;;;11.85;7.32;;;7.20;99.90;;;;;;4970956;28;20046;-72
2021/11/05 00:58:22;;;;;;;15.45;8.52;;;7.20;99.90;;;;;;4953808;28;20047;-72
2021/11/05 01:00:48;;;;;;;7.47;6.78;;;7.20;99.90;;;;;;4955239;28;20042;-72
2021/11/05 01:03:14;;;;;;;8.30;6.93;;;7.20;99.90;;;;;;4956896;28;20027;-73
2021/11/05 01:05:41;;;;;;;7.55;6.75;;;7.20;99.90;;;;;;4954527;28;20039;-72
2021/11/05 01:08:07;;;;;;;8.07;6.72;;;7.20;99.90;;;;;;4953883;28;20032;-72
2021/11/05 01:10:35;;;;;;;8.05;7.35;;;7.10;99.90;;;;;;4958483;28;20033;-72
2021/11/05 01:13:03;;;;;;;7.45;6.75;;;7.10;99.90;;;;;;4966201;28;20051;-72
2021/11/05 01:15:29;;;;;;;11.07;7.65;;;7.10;99.90;;;;;;4953866;28;20039;-72
2021/11/05 01:17:56;;;;;;;8.50;7.43;;;7.10;99.90;;;;;;4956880;28;20038;-71
2021/11/05 01:20:22;;;;;;;8.20;7.35;;;7.10;99.90;;;;;;4957261;28;20027;-72
2021/11/05 01:22:48;;;;;;;7.63;6.78;;;7.10;99.90;;;;;;4957737;28;20043;-71
2021/11/05 01:25:17;;;;;;;8.52;7.72;;;7.10;99.90;;;;;;4970736;28;20047;-72
2021/11/05 01:27:45;;;;;;;7.55;6.95;;;7.10;99.90;;;;;;4969327;28;20046;-71
2021/11/05 01:30:13;;;;;;;7.90;7.30;;;7.10;99.90;;;;;;4958152;28;20469;-72
2021/11/05 01:32:40;;;;;;;8.18;7.47;;;7.10;99.90;;;;;;4956188;28;20043;-72
2021/11/05 01:35:07;;;;;;;10.80;9.00;;;7.10;99.90;;;;;;4957826;29;20039;-72
2021/11/05 01:37:33;;;;;;;8.73;7.97;;;7.10;99.90;;;;;;4973089;28;20058;-72
2021/11/05 01:39:59;;;;;;;9.13;8.27;;;7.10;99.90;;;;;;4961877;28;20031;-72
2021/11/05 01:42:26;;;;;;;8.93;8.05;;;7.10;99.90;;;;;;4957022;29;20038;-71
2021/11/05 01:44:52;;;;;;;10.25;8.35;;;7.10;99.90;;;;;;4957831;28;20091;-72
2021/11/05 01:47:18;;;;;;;11.60;9.98;;;7.10;99.90;;;;;;4958194;28;20046;-72
2021/11/05 01:49:46;;;;;;;9.70;8.77;;;7.10;99.90;;;;;;4965405;28;20027;-72
2021/11/05 01:52:14;;;;;;;9.80;8.98;;;7.10;99.90;;;;;;4958018;28;20039;-72
2021/11/05 01:54:41;;;;;;;11.60;10.38;;;7.00;99.90;;;;;;4957215;28;20046;-72
2021/11/05 01:57:07;;;;;;;11.57;10.45;;;7.00;99.90;;;;;;4964677;28;20030;-72
2021/11/05 01:59:35;;;;;;;12.55;10.77;;;7.00;99.90;;;;;;4969478;28;20031;-72
2021/11/05 02:02:05;;;;;;;12.93;11.65;;;7.00;99.90;;;;;;4957146;28;20362;-72
2021/11/05 02:04:32;;;;;;;11.02;10.07;;;7.00;99.90;;;;;;4963885;28;20077;-72
2021/11/05 02:06:58;;;;;;;11.23;10.23;;;7.00;99.90;;;;;;4969003;28;20062;-71
2021/11/05 02:09:27;;;;;;;14.55;11.30;;;7.00;99.90;;;;;;4956551;28;20036;-71
2021/11/05 02:11:57;;;;;;;12.05;10.82;;;7.00;99.90;;;;;;4956429;28;20047;-71
2021/11/05 02:14:26;;;;;;;16.20;11.83;;;6.90;99.90;;;;;;4956819;28;20031;-72
2021/11/05 02:16:54;;;;;;;13.30;11.98;;;6.90;99.90;;;;;;4955465;28;20286;-72
2021/11/05 02:19:22;;;;;;;14.52;12.38;;;6.90;99.90;;;;;;4956487;28;20027;-72
2021/11/05 02:21:52;;;;;;;12.10;11.13;;;6.90;99.90;;;;;;4956255;28;20047;-72
2021/11/05 02:24:20;;;;;;;14.18;12.27;;;7.00;99.90;;;;;;4961695;28;20038;-72
2021/11/05 02:26:47;;;;;;;13.95;12.70;;;6.90;99.90;;;;;;4973406;28;20042;-72
2021/11/05 02:29:13;;;;;;;14.88;13.45;;;6.90;99.90;;;;;;4955655;28;20027;-72
2021/11/05 02:31:42;;;;;;;13.23;12.02;;;7.00;99.90;;;;;;4956277;28;20043;-73
2021/11/05 02:34:08;;;;;;;12.98;11.77;;;6.90;99.90;;;;;;4954718;29;20473;-71
2021/11/05 02:36:34;;;;;;;13.07;12.07;;;6.90;99.90;;;;;;4955891;28;20035;-73
2021/11/05 02:39:07;;;;;;;14.20;12.85;;;6.90;99.90;;;;;;4956550;28;20047;-72
2021/11/05 02:41:38;;;;;;;13.13;11.82;;;6.90;99.90;;;;;;4955865;28;20047;-72
2021/11/05 02:44:04;;;;;;;;;;;6.90;99.90;;;;;;4956097;28;20054;-72
2021/11/05 02:46:31;;;;;;;13.18;11.82;;;6.90;99.90;;;;;;4971822;28;20287;-72
2021/11/05 02:49:03;;;;;;;13.55;12.18;;;6.90;99.90;;;;;;4958465;28;20035;-72
2021/11/05 02:51:29;;;;;;;15.00;13.50;;;6.90;99.90;;;;;;4955701;28;20027;-72
2021/11/05 02:53:55;;;;;;;16.80;13.15;;;6.90;99.90;;;;;;4954556;28;20401;-72
2021/11/05 02:56:23;;;;;;;14.85;13.02;;;6.90;99.90;;;;;;4955559;28;20031;-72
2021/11/05 02:58:51;;;;;;;15.02;13.73;;;6.90;99.90;;;;;;4957377;28;20046;-72
2021/11/05 03:01:18;;;;;;;14.57;12.43;;;6.90;99.90;;;;;;4961279;28;20031;-72
2021/11/05 03:03:45;;;;;;;14.02;12.73;;;6.90;99.90;;;;;;4955680;28;20043;-74
2021/11/05 03:06:12;;;;;;;16.42;13.90;;;6.90;99.90;;;;;;4964271;28;20127;-72
2021/11/05 03:08:38;;;;;;;17.35;14.27;;;6.90;99.90;;;;;;4966567;28;20023;-72
2021/11/05 03:11:05;;;;;;;14.68;13.20;;;6.90;99.90;;;;;;4966019;28;20054;-72
2021/11/05 03:13:31;;;;;;;13.45;12.10;;;6.90;99.90;;;;;;4965474;28;20499;-72
2021/11/05 03:15:58;;;;;;;14.32;12.93;;;6.80;99.90;;;;;;4955578;28;20054;-72
2021/11/05 03:18:30;;;;;;;14.13;13.02;;;6.90;99.90;;;;;;4964543;28;20047;-72
2021/11/05 03:20:56;;;;;;;15.93;14.23;;;6.90;99.90;;;;;;4955936;28;20038;-72
2021/11/05 03:23:22;;;;;;;15.35;14.02;;;6.90;99.90;;;;;;4953331;28;20063;-73
2021/11/05 03:25:49;;;;;;;15.57;14.20;;;6.90;99.90;;;;;;4955561;28;20062;-72
2021/11/05 03:28:15;;;;;;;15.63;14.23;;;6.90;99.90;;;;;;4955129;28;20027;-72
2021/11/05 03:30:41;;;;;;;16.05;14.55;;;6.90;99.90;;;;;;4955331;28;20472;-72
2021/11/05 03:33:08;;;;;;;14.80;13.60;;;6.80;99.90;;;;;;4954956;28;20062;-72
2021/11/05 03:35:34;;;;;;;15.18;13.68;;;6.90;99.90;;;;;;4955196;28;20380;-72
2021/11/05 03:38:00;;;;;;;13.90;12.70;;;6.90;99.90;;;;;;4955236;28;20027;-72
2021/11/05 03:40:26;;;;;;;15.25;13.65;;;6.80;99.90;;;;;;4959091;28;20460;-72
2021/11/05 03:42:53;;;;;;;15.18;13.77;;;6.80;99.90;;;;;;4957121;28;20388;-72
2021/11/05 03:45:20;;;;;;;15.00;13.50;;;6.80;99.90;;;;;;4954529;28;20043;-72
2021/11/05 03:47:47;;;;;;;15.52;12.57;;;6.70;99.90;;;;;;4955071;28;20066;-73
2021/11/05 03:50:13;;;;;;;15.52;13.80;;;6.80;99.90;;;;;;4954788;29;20038;-72
2021/11/05 03:52:40;;;;;;;16.13;14.73;;;6.70;99.90;;;;;;4970947;28;20400;-72
2021/11/05 03:55:08;;;;;;;15.63;14.02;;;6.70;99.90;;;;;;4958429;28;20047;-72
2021/11/05 03:57:34;;;;;;;14.43;13.05;;;6.70;99.90;;;;;;4954539;28;20042;-72
2021/11/05 04:00:01;;;;;;;15.68;14.07;;;6.70;99.90;;;;;;4954321;28;20058;-72
2021/11/05 04:02:27;;;;;;;16.75;14.95;;;6.60;99.90;;;;;;4954180;28;20046;-72
2021/11/05 04:04:55;;;;;;;15.32;14.05;;;6.70;99.90;;;;;;4952748;28;20051;-72
2021/11/05 04:07:23;;;;;;;15.15;13.75;;;6.60;99.90;;;;;;4954097;29;20420;-72
2021/11/05 04:09:49;;;;;;;15.88;14.48;;;6.60;99.90;;;;;;4971941;28;20037;-72
2021/11/05 04:12:15;;;;;;;16.58;14.57;;;6.70;99.90;;;;;;4959050;28;20047;-72
2021/11/05 04:14:41;;;;;;;16.55;14.95;;;6.70;99.90;;;;;;4954237;28;20108;-72
2021/11/05 04:17:08;;;;;;;15.70;14.50;;;6.70;99.90;;;;;;4954466;28;20039;-72
2021/11/05 04:19:34;;;;;;;15.23;13.90;;;6.70;99.90;;;;;;4954053;28;20027;-72
2021/11/05 04:22:01;;;;;;;15.35;13.68;;;6.70;99.90;;;;;;4954433;28;20051;-72
2021/11/05 04:24:27;;;;;;;15.68;14.20;;;6.70;99.90;;;;;;4954194;28;20051;-72
2021/11/05 04:26:53;;;;;;;17.25;15.55;;;6.70;99.90;;;;;;4954425;28;20035;-72
2021/11/05 04:29:20;;;;;;;15.80;14.27;;;6.60;99.90;;;;;;4954175;28;20100;-72
2021/11/05 04:31:46;;;;;;;16.73;14.65;;;6.70;99.90;;;;;;4954494;28;20027;-72
2021/11/05 04:34:12;;;;;;;15.73;14.43;;;6.60;99.90;;;;;;4954176;28;20042;-74
2021/11/05 04:36:39;;;;;;;16.73;15.02;;;6.60;99.90;;;;;;4953777;28;20072;-72
2021/11/05 04:39:06;;;;;;;23.80;15.48;;;6.60;99.90;;;;;;4954230;28;20027;-72
2021/11/05 04:41:32;;;;;;;18.20;15.40;;;6.50;99.90;;;;;;4953731;28;20035;-72
2021/11/05 04:43:59;;;;;;;15.07;13.77;;;6.50;99.90;;;;;;4954753;28;20036;-72
2021/11/05 04:46:25;;;;;;;16.00;14.55;;;6.50;99.90;;;;;;4953777;28;20046;-72
2021/11/05 04:48:51;;;;;;;17.35;15.60;;;6.50;99.90;;;;;;4953906;28;20031;-72
2021/11/05 04:51:17;;;;;;;15.57;14.27;;;6.50;99.90;;;;;;4955089;28;20394;-72
2021/11/05 04:53:43;;;;;;;17.60;15.85;;;6.50;99.90;;;;;;4960038;28;20058;-72
2021/11/05 04:56:10;;;;;;;17.15;15.68;;;6.50;99.90;;;;;;4960776;28;20042;-72
2021/11/05 04:58:36;;;;;;;19.02;17.02;;;6.60;99.90;;;;;;4959814;28;20046;-72
2021/11/05 05:01:02;;;;;;;16.98;15.27;;;6.60;99.90;;;;;;4959135;28;20043;-72
2021/11/05 05:03:28;;;;;;;18.90;17.08;;;6.60;99.90;;;;;;4959366;28;20043;-72
2021/11/05 05:05:55;;;;;;;18.63;16.70;;;6.50;99.90;;;;;;4968654;28;20031;-72
2021/11/05 05:08:21;;;;;;;19.83;18.15;;;6.60;99.90;;;;;;4975037;28;20042;-73
2021/11/05 05:10:47;;;;;;;25.23;22.27;;;6.60;99.90;;;;;;4964371;28;20464;-72
2021/11/05 05:13:13;;;;;;;34.13;30.73;;;6.60;99.90;;;;;;4959882;28;20392;-72
2021/11/05 05:15:39;;;;;;;76.63;68.65;;;6.60;99.90;;;;;;4960202;28;20111;-73
2021/11/05 05:18:05;;;;;;;157.50;137.25;;;6.60;99.90;;;;;;4959773;28;20027;-73
2021/11/05 05:20:32;;;;;;;140.07;124.97;;;6.60;99.90;;;;;;4959867;28;20031;-72
2021/11/05 05:22:59;;;;;;;27.88;22.83;;;6.60;99.90;;;;;;4959843;28;20038;-72
2021/11/05 05:25:25;;;;;;;20.30;18.45;;;6.60;99.90;;;;;;4961983;28;20050;-73
2021/11/05 05:27:51;;;;;;;23.13;16.83;;;6.60;99.90;;;;;;4969922;28;20042;-72
2021/11/05 05:30:19;;;;;;;20.52;18.33;;;6.60;99.90;;;;;;4960246;28;20032;-72
2021/11/05 05:32:47;;;;;;;405.80;365.60;;;6.60;99.90;;;;;;4960424;28;20038;-72
2021/11/05 05:35:14;;;;;;;75.05;45.38;;;6.70;99.90;;;;;;4960146;28;20031;-72
2021/11/05 05:37:41;;;;;;;20.20;18.08;;;6.70;99.90;;;;;;4959330;28;20042;-72
2021/11/05 05:40:08;;;;;;;18.77;16.95;;;6.70;99.90;;;;;;4971047;28;20038;-71
2021/11/05 05:42:35;;;;;;;19.23;16.95;;;6.70;99.90;;;;;;4971621;28;20463;-73
2021/11/05 05:45:01;;;;;;;38.85;34.47;;;6.70;99.90;;;;;;4964775;28;20064;-73
2021/11/05 05:47:27;;;;;;;70.03;62.00;;;6.70;99.90;;;;;;4970598;28;20035;-72
2021/11/05 05:49:54;;;;;;;83.50;73.07;;;6.70;99.90;;;;;;4959131;28;20051;-72
2021/11/05 05:52:20;;;;;;;55.55;49.58;;;6.70;99.90;;;;;;4959698;28;20094;-75
2021/11/05 05:54:46;;;;;;;142.00;127.65;;;6.60;99.90;;;;;;4959813;28;20441;-72
2021/11/05 05:57:12;;;;;;;41.78;36.33;;;6.60;99.90;;;;;;4970178;28;20042;-73
2021/11/05 05:59:39;;;;;;;20.02;18.27;;;6.50;99.90;;;;;;4965639;28;20035;-73
2021/11/05 06:02:05;;;;;;;40.97;36.85;;;6.50;99.90;;;;;;4959873;28;20057;-73
2021/11/05 06:04:32;;;;;;;33.58;30.25;;;6.40;99.90;;;;;;4955306;28;20050;-73
2021/11/05 06:06:58;;;;;;;20.08;18.52;;;6.40;99.90;;;;;;4956720;28;20046;-73
2021/11/05 06:09:24;;;;;;;20.80;18.80;;;6.50;99.90;;;;;;4956364;28;20449;-73
2021/11/05 06:11:50;;;;;;;72.90;65.70;;;6.40;99.90;;;;;;4956668;29;20062;-73
2021/11/05 06:14:16;;;;;;;35.17;31.42;;;6.40;99.90;;;;;;4957306;28;20400;-73
2021/11/05 06:16:43;;;;;;;23.95;21.50;;;6.40;99.90;;;;;;4954416;28;20051;-73
2021/11/05 06:19:09;;;;;;;30.67;27.63;;;6.30;99.90;;;;;;4956720;28;20035;-73
2021/11/05 06:21:36;;;;;;;21.23;19.27;;;6.30;99.90;;;;;;4955988;28;20134;-73
2021/11/05 06:24:03;;;;;;;27.50;25.13;;;6.20;99.90;;;;;;4956510;28;20055;-73
2021/11/05 06:26:29;;;;;;;24.38;22.17;;;6.10;99.90;;;;;;4956065;28;20039;-73
2021/11/05 06:28:58;;;;;;;24.10;21.88;;;6.10;99.90;;;;;;4956792;28;20035;-72
2021/11/05 06:31:24;;;;;;;24.13;22.13;;;6.10;99.90;;;;;;4955825;28;20043;-73
2021/11/05 06:33:50;;;;;;;24.17;21.88;;;6.10;99.90;;;;;;4956315;28;20496;-72
2021/11/05 06:36:17;;;;;;;22.30;20.08;;;6.10;99.90;;;;;;4978713;28;20050;-72
2021/11/05 06:38:43;;;;;;;22.60;20.23;;;6.10;99.90;;;;;;4961471;28;20039;-73
2021/11/05 06:41:12;;;;;;;23.10;20.77;;;6.10;99.90;;;;;;4960747;28;20038;-73
2021/11/05 06:43:38;;;;;;;22.52;20.25;;;6.10;99.90;;;;;;4955557;29;20047;-73
2021/11/05 06:46:04;;;;;;;20.00;18.13;;;6.10;99.90;;;;;;4956026;28;20100;-72
2021/11/05 06:48:31;;;;;;;20.15;18.35;;;6.10;99.90;;;;;;4955565;28;20034;-72
2021/11/05 06:50:58;;;;;;;20.67;18.90;;;6.10;99.90;;;;;;4956155;28;20042;-72
2021/11/05 06:53:24;;;;;;;22.00;19.77;;;6.10;99.90;;;;;;4955763;28;20038;-72
2021/11/05 06:55:50;;;;;;;21.60;19.55;;;6.20;99.90;;;;;;4956260;28;20046;-72
2021/11/05 06:58:17;;;;;;;20.95;18.83;;;6.20;99.90;;;;;;4956039;28;20572;-72
2021/11/05 07:00:43;;;;;;;22.67;20.67;;;6.20;99.90;;;;;;4955561;28;20046;-72
2021/11/05 07:03:09;;;;;;;23.08;20.73;;;6.30;99.90;;;;;;4955612;28;20043;-72
2021/11/05 07:05:35;;;;;;;22.95;20.75;;;6.40;99.90;;;;;;4955034;28;20027;-72
2021/11/05 07:08:02;;;;;;;22.40;19.65;;;6.40;99.90;;;;;;4956237;28;20061;-72
2021/11/05 07:10:28;;;;;;;21.67;19.77;;;6.50;99.90;;;;;;4955227;28;20457;-72
2021/11/05 07:12:54;;;;;;;18.73;16.77;;;6.50;99.90;;;;;;4953622;28;20054;-72
2021/11/05 07:15:21;;;;;;;21.73;19.70;;;6.60;99.90;;;;;;4955349;28;20038;-73
2021/11/05 07:17:47;;;;;;;23.80;21.60;;;6.70;99.90;;;;;;4954699;28;20051;-72
2021/11/05 07:20:17;;;;;;;24.98;22.58;;;6.80;99.90;;;;;;4964978;28;20407;-72
2021/11/05 07:22:44;;;;;;;20.75;19.02;;;6.80;99.90;;;;;;4962070;28;20039;-72
2021/11/05 07:25:12;;;;;;;29.35;26.83;;;6.80;99.90;;;;;;4955059;28;20039;-72
2021/11/05 07:27:40;;;;;;;32.25;29.40;;;6.90;99.90;;;;;;4955218;28;20054;-72
2021/11/05 07:30:09;;;;;;;24.17;22.05;;;6.90;99.90;;;;;;4955152;28;20030;-72
2021/11/05 07:32:37;;;;;;;23.80;18.75;;;7.00;99.90;;;;;;4965720;28;20034;-73
2021/11/05 07:35:04;;;;;;;26.75;24.08;;;7.00;99.90;;;;;;4959331;28;20031;-72
2021/11/05 07:37:31;;;;;;;22.70;20.60;;;7.00;99.90;;;;;;4972693;28;20458;-71
2021/11/05 07:39:57;;;;;;;26.90;24.55;;;7.00;99.90;;;;;;4976406;28;20049;-74
2021/11/05 07:42:23;;;;;;;20.38;18.58;;;7.10;99.90;;;;;;4959710;28;20027;-79
2021/11/05 07:44:49;;;;;;;20.65;18.10;;;7.20;99.90;;;;;;4955156;28;20035;-73
2021/11/05 07:47:21;;;;;;;19.10;17.33;;;7.20;99.90;;;;;;4954894;28;20031;-76
2021/11/05 07:49:50;;;;;;;19.33;17.58;;;7.20;99.90;;;;;;4954367;28;20043;-73
2021/11/05 07:52:18;;;;;;;18.17;16.23;;;7.30;99.90;;;;;;4955137;28;20039;-73
2021/11/05 07:54:46;;;;;;;20.00;16.02;;;7.30;99.90;;;;;;4954516;28;20042;-74
2021/11/05 07:57:13;;;;;;;19.90;17.90;;;7.40;99.90;;;;;;4954658;28;20031;-73
2021/11/05 07:59:40;;;;;;;17.98;16.35;;;7.50;99.90;;;;;;4954778;28;20035;-73
2021/11/05 08:02:08;;;;;;;16.75;15.07;;;7.50;99.90;;;;;;4955053;28;20043;-73
2021/11/05 08:04:35;;;;;;;22.55;15.55;;;7.50;99.90;;;;;;4953763;28;20477;-73
2021/11/05 08:07:01;;;;;;;17.83;15.63;;;7.60;99.90;;;;;;4954932;28;20378;-73
2021/11/05 08:09:27;;;;;;;24.35;17.48;;;7.60;99.90;;;;;;4956881;28;20038;-74
2021/11/05 08:11:54;;;;;;;17.33;15.70;;;7.70;99.90;;;;;;4964099;28;20515;-73
2021/11/05 08:14:26;;;;;;;15.20;13.90;;;7.80;99.90;;;;;;4954847;28;20039;-73
2021/11/05 08:16:59;;;;;;;14.30;13.10;;;7.80;99.90;;;;;;4956279;28;20047;-73
2021/11/05 08:19:29;;;;;;;14.80;13.32;;;7.70;99.90;;;;;;4953907;28;20031;-73
2021/11/05 08:21:59;;;;;;;16.75;15.07;;;7.80;99.90;;;;;;4954034;28;20039;-73
2021/11/05 08:24:31;;;;;;;16.38;14.88;;;7.80;99.90;;;;;;4953937;28;20039;-72
2021/11/05 08:27:02;;;;;;;15.27;13.90;;;7.90;99.90;;;;;;4966365;28;20042;-72
2021/11/05 08:29:31;;;;;;;15.82;14.32;;;7.90;99.90;;;;;;4965270;28;20031;-72
2021/11/05 08:32:04;;;;;;;15.85;14.35;;;8.10;99.90;;;;;;4963022;28;20090;-72
2021/11/05 08:34:39;;;;;;;14.25;13.00;;;8.20;99.90;;;;;;4952473;28;20046;-73
2021/11/05 08:37:12;;;;;;;14.40;13.15;;;8.20;99.90;;;;;;4954079;28;20389;-72
2021/11/05 08:39:44;;;;;;;14.98;13.52;;;8.20;99.90;;;;;;4967565;28;20042;-72
2021/11/05 08:42:16;;;;;;;13.80;11.68;;;8.10;99.90;;;;;;4954667;29;20393;-72
2021/11/05 08:44:49;;;;;;;14.40;13.07;;;8.10;99.90;;;;;;4955013;28;20035;-72
2021/11/05 08:47:25;;;;;;;13.52;12.23;;;8.10;99.90;;;;;;4954256;28;20039;-72
2021/11/05 08:49:55;;;;;;;14.50;12.98;;;8.20;99.90;;;;;;4953805;28;20035;-72
2021/11/05 08:52:22;;;;;;;13.32;12.10;;;8.40;99.90;;;;;;4954774;28;20031;-72
2021/11/05 08:54:48;;;;;;;14.07;12.57;;;8.50;99.90;;;;;;4954945;28;20054;-72
2021/11/05 08:57:14;;;;;;;16.10;13.60;;;8.60;99.90;;;;;;4953729;28;20047;-72
2021/11/05 08:59:41;;;;;;;14.55;13.15;;;8.60;99.90;;;;;;4953898;28;20042;-72
2021/11/05 09:02:07;;;;;;;15.02;13.73;;;8.60;99.90;;;;;;4953865;28;20031;-72
2021/11/05 09:04:33;;;;;;;16.65;12.13;;;8.70;99.90;;;;;;4964984;28;20038;-72
2021/11/05 09:07:00;;;;;;;14.05;12.82;;;8.60;99.90;;;;;;4962195;28;20139;-72
2021/11/05 09:09:26;;;;;;;14.68;12.60;;;8.50;99.90;;;;;;4966560;28;20031;-76
2021/11/05 09:11:53;;;;;;;14.45;12.95;;;8.60;99.90;;;;;;4971762;28;20412;-71
2021/11/05 09:14:20;;;;;;;14.70;13.13;;;8.70;99.90;;;;;;4971323;28;20042;-71
2021/11/05 09:16:47;;;;;;;15.65;14.02;;;8.70;99.90;;;;;;4963470;28;20251;-71
2021/11/05 09:19:13;;;;;;;13.85;12.25;;;8.80;99.90;;;;;;4967359;28;20449;-70
2021/11/05 09:21:39;;;;;;;14.60;13.13;;;8.80;99.90;;;;;;4965704;28;20042;-72
2021/11/05 09:24:06;;;;;;;15.95;14.45;;;8.90;99.90;;;;;;4969946;28;20054;-72
2021/11/05 09:26:33;;;;;;;17.20;15.40;;;8.80;99.90;;;;;;4968208;28;20030;-74
2021/11/05 09:28:59;;;;;;;17.42;15.65;;;8.60;99.90;;;;;;4953940;28;20054;-73
2021/11/05 09:31:26;;;;;;;17.85;16.13;;;8.50;99.90;;;;;;4953681;28;20035;-76
2021/11/05 09:33:52;;;;;;;16.38;14.75;;;8.70;99.90;;;;;;4953448;29;20043;-73
2021/11/05 09:36:18;;;;;;;15.57;13.98;;;8.80;99.90;;;;;;4953144;28;20500;-74
2021/11/05 09:38:46;;;;;;;15.68;14.38;;;8.90;99.90;;;;;;4955710;28;20039;-71
2021/11/05 09:41:12;;;;;;;15.57;14.18;;;9.10;99.90;;;;;;4957383;28;20027;-72
2021/11/05 09:43:42;;;;;;;16.40;14.68;;;9.30;99.90;;;;;;4956968;28;20047;-72
2021/11/05 09:46:09;;;;;;;14.50;13.02;;;9.40;99.90;;;;;;4957043;28;20038;-72
2021/11/05 09:48:38;;;;;;;15.25;13.77;;;9.10;99.90;;;;;;4956421;29;20432;-72
2021/11/05 09:51:09;;;;;;;17.85;15.98;;;9.10;99.90;;;;;;4966097;28;20381;-72
2021/11/05 09:53:37;;;;;;;17.63;15.82;;;9.20;99.90;;;;;;4973967;28;20041;-72
2021/11/05 09:56:07;;;;;;;16.13;14.73;;;9.20;99.90;;;;;;4972663;28;20103;-72
2021/11/05 09:58:35;;;;;;;15.90;14.13;;;9.20;99.90;;;;;;4972086;28;20476;-72
2021/11/05 10:01:02;;;;;;;17.02;15.43;;;9.20;99.90;;;;;;4973474;28;20396;-73
2021/11/05 10:03:28;;;;;;;16.65;15.00;;;9.10;99.90;;;;;;4971980;28;20042;-73
2021/11/05 10:05:55;;;;;;;18.67;15.35;;;9.00;99.90;;;;;;4971859;28;20031;-72
2021/11/05 10:08:33;;;;;;;18.95;16.55;;;9.00;99.90;;;;;;4971241;28;20027;-72
2021/11/05 10:11:19;;;;;;;17.88;16.10;;;9.10;99.90;;;;;;4974566;28;20037;-73
2021/11/05 10:13:45;;;;;;;16.05;14.35;;;9.20;99.70;;;;;;4964057;28;20050;-73
2021/11/05 10:16:17;;;;;;;19.92;16.70;;;9.40;99.10;;;;;;4956431;28;20035;-74
2021/11/05 10:19:05;;;;;;;15.52;14.10;;;9.50;99.20;;;;;;4957060;28;20389;-73
2021/11/05 10:21:46;;;;;;;15.75;13.23;;;9.50;98.70;;;;;;4973698;28;20042;-73
2021/11/05 10:24:15;;;;;;;17.13;13.63;;;9.50;98.50;;;;;;4966542;28;20051;-73
2021/11/05 10:26:42;;;;;;;14.55;12.48;;;9.50;98.00;;;;;;4959590;28;20058;-72
2021/11/05 10:29:28;;;;;;;17.13;13.75;;;9.50;97.90;;;;;;4962111;28;20050;-72
2021/11/05 10:32:07;;;;;;;13.10;11.80;;;9.70;98.20;;;;;;4957426;28;20495;-72
2021/11/05 10:34:55;;;;;;;15.38;10.93;;;9.90;96.60;;;;;;4962128;28;20042;-73
2021/11/05 10:37:32;;;;;;;11.82;10.70;;;9.90;95.50;;;;;;4956409;28;20385;-74
2021/11/05 10:40:00;;;;;;;11.25;10.15;;;10.00;94.60;;;;;;4955458;28;20073;-73
2021/11/05 10:42:35;;;;;;;13.27;11.25;;;10.00;93.60;;;;;;4955847;28;20023;-76
2021/11/05 10:45:20;;;;;;;13.07;11.82;;;10.20;93.70;;;;;;4954665;28;20043;-73
2021/11/05 10:47:53;;;;;;;11.18;10.05;;;10.30;94.30;;;;;;4955269;28;20050;-72
2021/11/05 10:50:21;;;;;;;11.32;9.77;;;10.50;93.40;;;;;;4955430;28;20496;-73
2021/11/05 10:53:11;;;;;;;11.60;10.00;;;10.50;92.60;;;;;;4955235;28;20035;-72
2021/11/05 10:56:01;;;;;;;12.43;11.20;;;10.30;91.70;;;;;;4955212;28;20039;-72
2021/11/05 10:58:31;;;;;;;12.60;11.32;;;10.10;92.10;;;;;;4955692;28;20484;-75
2021/11/05 11:01:03;;;;;;;10.60;9.45;;;10.00;92.60;;;;;;4955383;28;20047;-73
2021/11/05 11:03:33;;;;;;;13.07;10.65;;;10.00;91.90;;;;;;4955289;28;20055;-72
2021/11/05 11:06:11;;;;;;;14.77;12.93;;;9.80;92.30;;;;;;4959131;28;20023;-73
2021/11/05 11:08:44;;;;;;;12.93;11.80;;;9.70;92.70;;;;;;4965613;28;20042;-73
2021/11/05 11:11:20;;;;;;;13.57;12.18;;;9.70;92.50;;;;;;4955511;28;20054;-73
2021/11/05 11:14:16;;;;;;;12.80;11.57;;;9.80;93.00;;;;;;4955063;28;20031;-74
2021/11/05 11:16:49;;;;;;;17.13;12.25;;;9.90;91.50;;;;;;4955272;28;20489;-73
2021/11/05 11:19:19;;;;;;;11.77;10.57;;;10.00;92.10;;;;;;4962509;28;20038;-73
2021/11/05 11:21:53;;;;;;;12.77;11.43;;;10.10;91.80;;;;;;4954709;28;20034;-72
2021/11/05 11:24:23;;;;;;;19.52;13.43;;;10.40;91.80;;;;;;4952936;28;20056;-73
2021/11/05 11:26:50;;;;;;;13.32;11.68;;;10.30;91.20;;;;;;4978817;28;20037;-75
2021/11/05 11:29:19;;;;;;;14.73;12.30;;;10.20;91.30;;;;;;4973523;28;20035;-75
2021/11/05 11:31:46;;;;;;;11.80;10.32;;;10.30;91.10;;;;;;4969011;28;20031;-75
2021/11/05 11:34:14;;;;;;;15.35;11.65;;;10.40;90.80;;;;;;4955041;28;20050;-75
2021/11/05 11:36:43;;;;;;;13.52;11.05;;;10.40;90.40;;;;;;4954544;28;20031;-74
2021/11/05 11:39:15;;;;;;;12.20;11.10;;;10.30;90.40;;;;;;4960826;28;20474;-75
2021/11/05 11:41:43;;;;;;;12.13;10.90;;;10.20;90.20;;;;;;4954380;28;20051;-79
2021/11/05 11:44:13;;;;;;;13.00;11.45;;;10.10;90.10;;;;;;4959044;28;20042;-73
2021/11/05 11:47:02;;;;;;;11.73;10.63;;;10.00;90.50;;;;;;4966097;28;20035;-73
2021/11/05 11:49:39;;;;;;;11.48;10.02;;;10.00;90.10;;;;;;4955292;28;20287;-76
2021/11/05 11:52:18;;;;;;;11.93;10.80;;;10.20;89.20;;;;;;4960505;28;20469;-72
2021/11/05 11:54:55;;;;;;;12.70;10.88;;;10.40;89.90;;;;;;4953990;28;20054;-72
2021/11/05 11:57:23;;;;;;;11.32;9.98;;;10.50;90.10;;;;;;4954402;28;20050;-73
2021/11/05 12:00:09;;;;;;;13.18;11.15;;;10.50;88.70;;;;;;4953976;28;20051;-74
2021/11/05 12:02:48;;;;;;;13.18;10.45;;;10.30;89.20;;;;;;4965927;28;20031;-72
2021/11/05 12:05:20;;;;;;;15.32;12.27;;;10.00;89.30;;;;;;4958387;28;20035;-74
2021/11/05 12:08:12;;;;;;;13.10;11.35;;;9.90;90.30;;;;;;4954347;28;20038;-72
2021/11/05 12:10:40;;;;;;;13.45;12.20;;;10.00;90.40;;;;;;4954129;28;20050;-72
2021/11/05 12:13:33;;;;;;;13.27;10.63;;;10.20;90.20;;;;;;4970268;28;20043;-72
2021/11/05 12:16:27;;;;;;;12.43;10.85;;;10.10;89.30;;;;;;4959802;28;20062;-72
2021/11/05 12:18:59;;;;;;;12.77;11.48;;;10.00;90.20;;;;;;4963837;28;20464;-73
2021/11/05 12:21:29;;;;;;;14.07;12.60;;;10.00;90.00;;;;;;4961166;28;20038;-72
2021/11/05 12:24:19;;;;;;;12.65;11.35;;;10.00;90.50;;;;;;4959989;28;20058;-72
2021/11/05 12:26:52;;;;;;;14.40;12.75;;;10.20;91.00;;;;;;4954358;28;20400;-72
2021/11/05 12:29:33;;;;;;;11.95;10.80;;;10.10;90.30;;;;;;4954614;28;20039;-72
2021/11/05 12:32:22;;;;;;;12.77;11.60;;;10.00;89.00;;;;;;4956933;28;20046;-72
2021/11/05 12:34:51;;;;;;;11.88;10.63;;;10.10;89.70;;;;;;4957661;28;20035;-72
2021/11/05 12:37:36;;;;;;;13.70;12.20;;;10.00;90.00;;;;;;4954155;29;20035;-72
2021/11/05 12:40:23;;;;;;;13.45;10.82;;;10.00;89.90;;;;;;4968625;28;20038;-72
2021/11/05 12:42:52;;;;;;;11.40;9.73;;;10.00;89.50;;;;;;4954136;28;20382;-72
2021/11/05 12:45:20;;;;;;;9.57;8.40;;;10.00;88.90;;;;;;4954318;28;20481;-71
2021/11/05 12:47:54;;;;;;;10.13;9.15;;;10.20;88.60;;;;;;4966173;28;20468;-72